createdAt,value
2018-10-09T00:01:09.850Z,33.83
2018-10-09T00:03:38.047Z,28.80
2018-10-09T00:06:06.255Z,27.30
2018-10-09T00:08:34.485Z,28.33
2018-10-09T00:11:02.713Z,25.73
2018-10-09T00:13:30.924Z,26.23
2018-10-09T00:15:59.156Z,26.47
2018-10-09T00:18:27.360Z,24.70
2018-10-09T00:20:55.563Z,25.97
2018-10-09T00:23:23.776Z,26.90
2018-10-09T00:25:52.005Z,26.23
2018-10-09T00:28:20.192Z,25.33
2018-10-09T00:30:48.400Z,27.40
2018-10-09T00:33:16.621Z,30.00
2018-10-09T00:35:44.852Z,29.83
2018-10-09T00:38:13.098Z,32.77
2018-10-09T00:40:41.342Z,33.47
2018-10-09T00:43:09.560Z,35.23
2018-10-09T00:45:37.771Z,33.87
2018-10-09T00:48:06.002Z,36.30
2018-10-09T00:50:34.229Z,35.97
2018-10-09T00:53:02.473Z,40.83
2018-10-09T00:55:30.704Z,39.27
2018-10-09T00:57:58.923Z,41.80
2018-10-09T01:00:27.136Z,40.57
2018-10-09T01:02:55.360Z,39.77
2018-10-09T01:05:29.812Z,36.03
2018-10-09T01:07:58.162Z,36.10
2018-10-09T01:10:26.775Z,38.97
2018-10-09T01:12:55.010Z,38.57
2018-10-09T01:15:23.213Z,44.30
2018-10-09T01:17:51.439Z,46.40
2018-10-09T01:20:25.736Z,43.57
2018-10-09T01:22:54.051Z,40.53
2018-10-09T01:25:22.308Z,38.93
2018-10-09T01:27:50.785Z,39.73
2018-10-09T01:30:19.016Z,36.43
2018-10-09T01:32:47.213Z,36.03
2018-10-09T01:35:15.451Z,35.60
2018-10-09T01:37:43.679Z,36.30
2018-10-09T01:40:11.890Z,37.17
2018-10-09T01:42:40.112Z,39.73
2018-10-09T01:45:08.352Z,34.57
2018-10-09T01:47:36.552Z,35.73
2018-10-09T01:50:04.776Z,33.17
2018-10-09T01:52:32.999Z,32.00
2018-10-09T01:55:01.223Z,31.53
2018-10-09T01:57:29.582Z,30.90
2018-10-09T01:59:57.816Z,27.73
2018-10-09T02:02:26.065Z,27.10
2018-10-09T02:04:54.275Z,26.30
2018-10-09T02:07:22.549Z,27.07
2018-10-09T02:09:50.764Z,27.17
2018-10-09T02:12:19.002Z,25.60
2018-10-09T02:14:47.224Z,27.87
2018-10-09T02:17:15.472Z,28.10
2018-10-09T02:19:43.684Z,26.93
2018-10-09T02:22:11.895Z,26.13
2018-10-09T02:24:40.140Z,23.37
2018-10-09T02:27:08.399Z,24.97
2018-10-09T02:29:36.596Z,25.93
2018-10-09T02:32:04.903Z,25.77
2018-10-09T02:34:33.128Z,25.87
2018-10-09T02:37:01.359Z,24.87
2018-10-09T02:39:29.597Z,24.73
2018-10-09T02:41:57.808Z,26.47
2018-10-09T02:44:26.028Z,25.33
2018-10-09T02:46:54.243Z,25.43
2018-10-09T02:49:22.451Z,23.40
2018-10-09T02:51:50.776Z,24.30
2018-10-09T02:54:19.260Z,25.27
2018-10-09T02:56:47.531Z,25.10
2018-10-09T02:59:15.765Z,24.10
2018-10-09T03:01:44.024Z,24.93
2018-10-09T03:04:12.272Z,26.00
2018-10-09T03:06:40.505Z,25.17
2018-10-09T03:09:09.201Z,25.50
2018-10-09T03:11:37.624Z,24.07
2018-10-09T03:14:09.972Z,26.10
2018-10-09T03:16:38.206Z,27.07
2018-10-09T03:19:06.519Z,29.10
2018-10-09T03:21:34.744Z,32.87
2018-10-09T03:24:03.000Z,33.30
2018-10-09T03:26:31.243Z,32.77
2018-10-09T03:28:59.452Z,29.13
2018-10-09T03:31:27.694Z,31.30
2018-10-09T03:33:55.898Z,29.73
2018-10-09T03:36:24.096Z,29.70
2018-10-09T03:38:52.386Z,29.70
2018-10-09T03:41:20.605Z,28.70
2018-10-09T03:43:48.820Z,29.57
2018-10-09T03:46:17.297Z,31.00
2018-10-09T03:48:45.509Z,31.57
2018-10-09T03:51:13.855Z,33.13
2018-10-09T03:53:42.387Z,32.37
2018-10-09T03:56:10.591Z,35.10
2018-10-09T03:58:38.789Z,42.20
2018-10-09T04:01:07.029Z,42.43
2018-10-09T04:03:35.371Z,38.70
2018-10-09T04:06:03.574Z,36.73
2018-10-09T04:08:31.845Z,36.97
2018-10-09T04:11:00.060Z,37.97
2018-10-09T04:13:28.336Z,41.93
2018-10-09T04:15:56.560Z,48.20
2018-10-09T04:18:24.901Z,44.53
2018-10-09T04:20:53.249Z,43.07
2018-10-09T04:23:21.461Z,40.27
2018-10-09T04:25:49.675Z,38.97
2018-10-09T04:28:17.907Z,38.63
2018-10-09T04:30:46.181Z,38.67
2018-10-09T04:33:14.407Z,38.70
2018-10-09T04:35:42.718Z,39.83
2018-10-09T04:38:10.847Z,43.43
2018-10-09T04:40:39.080Z,44.60
2018-10-09T04:43:07.330Z,47.87
2018-10-09T04:45:36.010Z,46.53
2018-10-09T04:48:04.151Z,47.23
2018-10-09T04:50:32.365Z,42.07
2018-10-09T04:53:00.603Z,39.07
2018-10-09T04:55:28.865Z,37.40
2018-10-09T04:57:57.060Z,34.50
2018-10-09T05:00:25.651Z,35.00
2018-10-09T05:02:53.848Z,30.87
2018-10-09T05:05:22.054Z,28.97
2018-10-09T05:07:50.460Z,28.87
2018-10-09T05:10:18.664Z,28.50
2018-10-09T05:12:47.140Z,27.30
2018-10-09T05:15:15.487Z,26.80
2018-10-09T05:17:43.755Z,26.70
2018-10-09T05:20:12.016Z,27.73
2018-10-09T05:22:40.727Z,28.13
2018-10-09T05:25:09.276Z,30.13
2018-10-09T05:27:37.591Z,32.83
2018-10-09T05:30:05.871Z,31.90
2018-10-09T05:32:34.088Z,32.90
2018-10-09T05:35:02.319Z,34.37
2018-10-09T05:37:30.525Z,33.87
2018-10-09T05:39:58.748Z,32.17
2018-10-09T05:42:26.976Z,32.93
2018-10-09T05:44:55.300Z,31.00
2018-10-09T05:47:23.608Z,31.17
2018-10-09T05:49:51.816Z,30.57
2018-10-09T05:52:20.036Z,30.27
2018-10-09T05:54:48.243Z,30.60
2018-10-09T05:57:16.446Z,33.07
2018-10-09T05:59:44.675Z,33.03
2018-10-09T06:02:12.949Z,31.83
2018-10-09T06:04:41.164Z,35.20
2018-10-09T06:07:09.383Z,37.17
2018-10-09T06:09:37.595Z,35.70
2018-10-09T06:12:06.068Z,36.60
2018-10-09T06:14:34.293Z,37.13
2018-10-09T06:17:02.492Z,37.97
2018-10-09T06:19:30.740Z,36.33
2018-10-09T06:21:59.019Z,37.00
2018-10-09T06:24:27.547Z,35.50
2018-10-09T06:26:55.766Z,34.23
2018-10-09T06:29:24.008Z,34.30
2018-10-09T06:31:52.232Z,32.30
2018-10-09T06:34:20.467Z,32.57
2018-10-09T06:36:48.705Z,32.57
2018-10-09T06:39:16.952Z,33.57
2018-10-09T06:41:45.185Z,32.40
2018-10-09T06:44:13.460Z,33.93
2018-10-09T06:46:41.712Z,33.30
2018-10-09T06:49:09.933Z,33.73
2018-10-09T06:51:38.413Z,32.20
2018-10-09T06:54:06.732Z,33.63
2018-10-09T06:56:34.871Z,33.57
2018-10-09T06:59:03.492Z,31.43
2018-10-09T07:01:31.708Z,33.77
2018-10-09T07:03:59.953Z,31.80
2018-10-09T07:06:28.474Z,32.33
2018-10-09T07:08:56.682Z,32.57
2018-10-09T07:11:24.981Z,31.03
2018-10-09T07:13:53.336Z,28.30
2018-10-09T07:16:21.582Z,30.43
2018-10-09T07:18:49.798Z,27.37
2018-10-09T07:21:18.012Z,27.33
2018-10-09T07:23:46.235Z,26.90
2018-10-09T07:26:14.504Z,25.67
2018-10-09T07:28:42.780Z,25.00
2018-10-09T07:31:11.056Z,24.73
2018-10-09T07:33:39.313Z,23.97
2018-10-09T07:36:07.599Z,24.87
2018-10-09T07:38:36.485Z,25.33
2018-10-09T07:41:04.828Z,25.33
2018-10-09T07:43:33.419Z,24.33
2018-10-09T07:46:01.850Z,25.33
2018-10-09T07:48:30.060Z,24.90
2018-10-09T07:50:58.707Z,26.23
2018-10-09T07:53:26.991Z,27.83
2018-10-09T07:55:55.230Z,29.87
2018-10-09T07:58:23.448Z,33.73
2018-10-09T08:00:51.672Z,34.87
2018-10-09T08:03:20.071Z,37.63
2018-10-09T08:05:48.336Z,38.47
2018-10-09T08:08:16.976Z,37.80
2018-10-09T08:10:45.660Z,38.70
2018-10-09T08:13:13.832Z,38.97
2018-10-09T08:15:42.072Z,37.93
2018-10-09T08:18:10.305Z,40.97
2018-10-09T08:20:38.542Z,39.00
2018-10-09T08:23:06.819Z,39.83
2018-10-09T08:25:35.020Z,40.23
2018-10-09T08:28:03.439Z,41.40
2018-10-09T08:30:31.648Z,44.13
2018-10-09T08:32:59.916Z,39.70
2018-10-09T08:35:28.157Z,41.93
2018-10-09T08:37:56.380Z,39.53
2018-10-09T08:40:25.015Z,39.97
2018-10-09T08:42:53.093Z,43.43
2018-10-09T08:45:21.331Z,41.87
2018-10-09T08:47:49.704Z,41.33
2018-10-09T08:50:17.960Z,40.17
2018-10-09T08:52:46.207Z,38.77
2018-10-09T08:55:14.483Z,41.87
2018-10-09T08:57:42.740Z,41.23
2018-10-09T09:00:11.049Z,41.97
2018-10-09T09:02:39.285Z,40.93
2018-10-09T09:05:08.012Z,41.17
2018-10-09T09:07:36.256Z,40.87
2018-10-09T09:10:04.531Z,40.23
2018-10-09T09:12:32.762Z,40.60
2018-10-09T09:15:01.048Z,39.93
2018-10-09T09:17:29.305Z,39.87
2018-10-09T09:19:57.616Z,39.53
2018-10-09T09:22:25.856Z,40.40
2018-10-09T09:24:54.064Z,39.10
2018-10-09T09:27:22.344Z,37.50
2018-10-09T09:29:50.509Z,40.43
2018-10-09T09:32:18.746Z,38.83
2018-10-09T09:34:46.967Z,40.27
2018-10-09T09:37:15.401Z,38.33
2018-10-09T09:39:43.616Z,37.00
2018-10-09T09:42:11.858Z,37.17
2018-10-09T09:44:40.123Z,38.73
2018-10-09T09:47:08.402Z,37.23
2018-10-09T09:49:36.616Z,37.50
2018-10-09T09:52:04.913Z,37.60
2018-10-09T09:54:33.141Z,36.10
2018-10-09T09:57:01.437Z,34.37
2018-10-09T09:59:29.681Z,33.47
2018-10-09T10:01:57.908Z,34.67
2018-10-09T10:04:26.145Z,36.10
2018-10-09T10:06:54.381Z,34.77
2018-10-09T10:09:22.663Z,35.60
2018-10-09T10:11:50.845Z,33.83
2018-10-09T10:14:19.099Z,33.70
2018-10-09T10:16:47.342Z,31.93
2018-10-09T10:19:15.563Z,32.67
2018-10-09T10:21:43.800Z,32.97
2018-10-09T10:24:12.072Z,31.97
2018-10-09T10:26:40.590Z,32.53
2018-10-09T10:29:08.896Z,32.13
2018-10-09T10:31:37.076Z,31.83
2018-10-09T10:34:05.428Z,32.20
2018-10-09T10:36:33.681Z,30.27
2018-10-09T10:39:02.235Z,30.20
2018-10-09T10:41:30.462Z,29.63
2018-10-09T10:43:58.713Z,30.30
2018-10-09T10:46:32.425Z,26.97
2018-10-09T10:49:04.958Z,27.37
2018-10-09T10:51:33.622Z,27.27
2018-10-09T10:54:01.832Z,24.60
2018-10-09T10:56:30.168Z,23.53
2018-10-09T10:58:58.456Z,26.00
2018-10-09T11:01:26.745Z,24.77
2018-10-09T11:03:55.675Z,24.57
2018-10-09T11:06:24.006Z,23.67
2018-10-09T11:08:52.231Z,23.03
2018-10-09T11:11:20.705Z,22.50
2018-10-09T11:13:49.301Z,23.00
2018-10-09T11:16:18.237Z,23.00
2018-10-09T11:18:46.504Z,21.57
2018-10-09T11:21:14.815Z,21.43
2018-10-09T11:23:43.212Z,23.57
2018-10-09T11:26:11.468Z,21.97
2018-10-09T11:28:39.716Z,22.77
2018-10-09T11:31:08.108Z,22.80
2018-10-09T11:33:36.336Z,22.67
2018-10-09T11:36:04.569Z,22.53
2018-10-09T11:38:32.808Z,20.23
2018-10-09T11:41:01.049Z,19.53
2018-10-09T11:43:29.289Z,19.10
2018-10-09T11:45:57.809Z,19.17
2018-10-09T11:48:26.073Z,20.13
2018-10-09T11:50:54.596Z,19.33
2018-10-09T11:53:22.820Z,20.07
2018-10-09T11:55:51.042Z,21.17
2018-10-09T11:58:19.329Z,21.70
2018-10-09T12:00:48.813Z,20.73
2018-10-09T12:03:17.055Z,20.20
2018-10-09T12:05:45.486Z,21.50
2018-10-09T12:08:13.722Z,21.50
2018-10-09T12:10:41.976Z,21.80
2018-10-09T12:13:10.205Z,21.30
2018-10-09T12:15:38.467Z,20.00
2018-10-09T12:18:06.712Z,19.43
2018-10-09T12:20:34.972Z,20.80
2018-10-09T12:23:03.209Z,19.27
2018-10-09T12:25:31.457Z,20.80
2018-10-09T12:27:59.729Z,19.00
2018-10-09T12:30:27.972Z,18.63
2018-10-09T12:32:56.214Z,18.33
2018-10-09T12:35:24.416Z,18.37
2018-10-09T12:37:52.635Z,16.80
2018-10-09T12:40:20.860Z,15.60
2018-10-09T12:42:49.089Z,14.27
2018-10-09T12:45:17.312Z,15.90
2018-10-09T12:47:45.570Z,13.40
2018-10-09T12:50:13.836Z,13.77
2018-10-09T12:52:42.076Z,13.50
2018-10-09T12:55:10.333Z,12.90
2018-10-09T12:57:38.900Z,13.10
2018-10-09T13:00:07.163Z,12.87
2018-10-09T13:02:35.399Z,12.37
2018-10-09T13:05:03.961Z,12.63
2018-10-09T13:07:32.206Z,12.17
2018-10-09T13:10:00.403Z,12.60
2018-10-09T13:12:28.687Z,12.53
2018-10-09T13:14:57.139Z,12.63
2018-10-09T13:17:26.221Z,12.73
2018-10-09T13:19:55.110Z,12.07
2018-10-09T13:22:24.606Z,13.03
2018-10-09T13:24:52.546Z,12.87
2018-10-09T13:27:20.786Z,12.70
2018-10-09T13:29:49.670Z,12.00
2018-10-09T13:32:18.326Z,11.77
2018-10-09T13:34:46.598Z,11.60
2018-10-09T13:37:14.867Z,12.00
2018-10-09T13:39:43.177Z,11.63
2018-10-09T13:42:11.436Z,11.43
2018-10-09T13:44:39.657Z,11.70
2018-10-09T13:47:07.914Z,10.87
2018-10-09T13:49:36.104Z,10.33
2018-10-09T13:52:04.344Z,11.40
2018-10-09T13:54:32.576Z,10.73
2018-10-09T13:57:00.803Z,10.33
2018-10-09T13:59:29.035Z,10.20
2018-10-09T14:01:57.268Z,9.90
2018-10-09T14:04:25.521Z,11.07
2018-10-09T14:06:53.780Z,10.10
2018-10-09T14:09:22.042Z,10.83
2018-10-09T14:11:50.335Z,10.33
2018-10-09T14:14:18.480Z,10.67
2018-10-09T14:16:46.804Z,10.50
2018-10-09T14:19:15.361Z,10.03
2018-10-09T14:21:43.810Z,9.10
2018-10-09T14:24:12.037Z,9.70
2018-10-09T14:26:42.161Z,11.90
2018-10-09T14:29:10.488Z,13.90
2018-10-09T14:31:38.771Z,14.40
2018-10-09T14:34:07.600Z,13.43
2018-10-09T14:36:36.116Z,10.13
2018-10-09T14:39:05.824Z,10.43
2018-10-09T14:41:34.278Z,8.97
2018-10-09T14:44:02.950Z,8.80
2018-10-09T14:46:31.123Z,9.10
2018-10-09T14:48:59.328Z,8.47
2018-10-09T14:51:27.539Z,9.67
2018-10-09T14:53:55.792Z,8.87
2018-10-09T14:56:24.424Z,8.67
2018-10-09T14:58:52.641Z,8.37
2018-10-09T15:01:20.984Z,8.77
2018-10-09T15:03:49.418Z,9.37
2018-10-09T15:06:17.619Z,9.13
2018-10-09T15:08:46.496Z,9.20
2018-10-09T15:11:14.748Z,9.77
2018-10-09T15:13:43.441Z,10.27
2018-10-09T15:16:11.956Z,9.33
2018-10-09T15:18:40.185Z,9.00
2018-10-09T15:21:08.497Z,9.03
2018-10-09T15:23:36.757Z,8.70
2018-10-09T15:26:04.982Z,9.23
2018-10-09T15:28:33.207Z,9.40
2018-10-09T15:31:01.420Z,9.10
2018-10-09T15:33:29.731Z,9.10
2018-10-09T15:35:58.060Z,9.43
2018-10-09T15:38:26.305Z,9.00
2018-10-09T15:40:54.540Z,9.50
2018-10-09T15:43:24.187Z,8.10
2018-10-09T15:45:52.392Z,9.00
2018-10-09T15:48:20.616Z,8.37
2018-10-09T15:50:49.151Z,8.13
2018-10-09T15:53:17.344Z,7.87
2018-10-09T15:55:45.573Z,7.50
2018-10-09T15:58:13.865Z,7.90
2018-10-09T16:00:42.084Z,7.80
2018-10-09T16:03:10.295Z,8.23
2018-10-09T16:05:38.523Z,7.63
2018-10-09T16:08:06.755Z,8.30
2018-10-09T16:10:34.944Z,8.00
2018-10-09T16:13:03.212Z,7.87
2018-10-09T16:15:31.737Z,8.30
2018-10-09T16:18:00.267Z,7.80
2018-10-09T16:20:28.503Z,7.50
2018-10-09T16:23:03.288Z,8.43
2018-10-09T16:25:31.510Z,8.80
2018-10-09T16:27:59.736Z,8.00
2018-10-09T16:30:27.966Z,7.57
2018-10-09T16:32:56.263Z,8.13
2018-10-09T16:35:24.380Z,9.33
2018-10-09T16:37:52.722Z,8.27
2018-10-09T16:40:20.967Z,9.20
2018-10-09T16:42:49.144Z,8.10
2018-10-09T16:45:17.357Z,8.27
2018-10-09T16:47:45.680Z,9.10
2018-10-09T16:50:14.011Z,9.50
2018-10-09T16:52:42.267Z,9.03
2018-10-09T16:55:10.498Z,9.13
2018-10-09T16:57:39.069Z,10.00
2018-10-09T17:00:07.658Z,9.73
2018-10-09T17:02:35.956Z,9.93
2018-10-09T17:05:04.492Z,10.57
2018-10-09T17:07:32.969Z,10.90
2018-10-09T17:10:01.287Z,10.83
2018-10-09T17:12:29.501Z,12.00
2018-10-09T17:14:57.741Z,11.17
2018-10-09T17:17:26.077Z,12.33
2018-10-09T17:19:54.349Z,12.77
2018-10-09T17:22:23.003Z,12.07
2018-10-09T17:24:51.214Z,12.70
2018-10-09T17:27:19.432Z,12.03
2018-10-09T17:29:47.803Z,13.40
2018-10-09T17:32:16.016Z,13.57
2018-10-09T17:34:44.321Z,13.27
2018-10-09T17:37:12.593Z,14.77
2018-10-09T17:39:40.845Z,14.37
2018-10-09T17:42:09.155Z,14.77
2018-10-09T17:44:37.344Z,13.73
2018-10-09T17:47:08.220Z,15.00
2018-10-09T17:49:37.776Z,15.93
2018-10-09T17:52:06.337Z,15.93
2018-10-09T17:54:34.593Z,16.37
2018-10-09T17:57:02.932Z,15.97
2018-10-09T17:59:31.172Z,17.20
2018-10-09T18:01:59.436Z,17.77
2018-10-09T18:04:27.693Z,17.90
2018-10-09T18:06:56.200Z,18.40
2018-10-09T18:09:24.421Z,19.60
2018-10-09T18:11:52.636Z,20.07
2018-10-09T18:14:20.852Z,20.20
2018-10-09T18:16:49.055Z,19.77
2018-10-09T18:19:17.324Z,20.00
2018-10-09T18:21:45.540Z,21.43
2018-10-09T18:24:13.804Z,20.73
2018-10-09T18:26:42.013Z,22.10
2018-10-09T18:29:10.256Z,21.90
2018-10-09T18:31:38.521Z,22.47
2018-10-09T18:34:06.840Z,23.33
2018-10-09T18:36:35.065Z,22.07
2018-10-09T18:39:03.648Z,22.93
2018-10-09T18:41:32.024Z,22.37
2018-10-09T18:44:00.545Z,24.10
2018-10-09T18:46:28.737Z,25.10
2018-10-09T18:48:58.030Z,24.23
2018-10-09T18:51:26.312Z,25.40
2018-10-09T18:53:54.481Z,22.70
2018-10-09T18:56:22.728Z,26.90
2018-10-09T18:58:50.981Z,24.50
2018-10-09T19:01:19.179Z,24.53
2018-10-09T19:03:47.437Z,27.17
2018-10-09T19:06:15.721Z,25.60
2018-10-09T19:08:44.025Z,26.90
2018-10-09T19:11:23.058Z,25.17
2018-10-09T19:13:51.532Z,26.70
2018-10-09T19:16:19.832Z,28.83
2018-10-09T19:18:48.304Z,26.93
2018-10-09T19:21:16.808Z,27.80
2018-10-09T19:23:45.115Z,26.30
2018-10-09T19:26:13.308Z,28.33
2018-10-09T19:28:41.684Z,27.63
2018-10-09T19:31:10.294Z,27.83
2018-10-09T19:33:38.554Z,26.77
2018-10-09T19:36:06.781Z,27.50
2018-10-09T19:38:35.033Z,27.40
2018-10-09T19:41:03.269Z,27.40
2018-10-09T19:43:31.636Z,29.43
2018-10-09T19:45:59.885Z,27.67
2018-10-09T19:48:35.768Z,27.03
2018-10-09T19:51:04.201Z,26.67
2018-10-09T19:53:32.233Z,28.23
2018-10-09T19:56:00.558Z,27.07
2018-10-09T19:58:28.820Z,29.50
2018-10-09T20:00:57.085Z,28.90
2018-10-09T20:03:25.345Z,30.70
2018-10-09T20:05:53.656Z,31.17
2018-10-09T20:08:21.952Z,32.93
2018-10-09T20:10:50.249Z,32.90
2018-10-09T20:13:18.488Z,34.67
2018-10-09T20:15:46.724Z,31.03
2018-10-09T20:18:15.000Z,32.90
2018-10-09T20:20:43.258Z,33.13
2018-10-09T20:23:11.492Z,34.77
2018-10-09T20:25:39.706Z,35.20
2018-10-09T20:28:07.966Z,32.90
2018-10-09T20:30:36.197Z,32.67
2018-10-09T20:33:04.549Z,32.43
2018-10-09T20:35:32.778Z,32.07
2018-10-09T20:38:01.029Z,31.03
2018-10-09T20:40:29.272Z,33.77
2018-10-09T20:42:57.818Z,35.80
2018-10-09T20:45:26.065Z,34.80
2018-10-09T20:47:54.292Z,38.03
2018-10-09T20:50:22.541Z,40.47
2018-10-09T20:52:51.120Z,41.93
2018-10-09T20:55:19.340Z,39.43
2018-10-09T20:57:47.592Z,39.37
2018-10-09T21:00:15.858Z,39.83
2018-10-09T21:02:44.117Z,38.03
2018-10-09T21:05:12.376Z,37.73
2018-10-09T21:07:40.636Z,38.80
2018-10-09T21:10:08.865Z,40.83
2018-10-09T21:12:37.093Z,42.87
2018-10-09T21:15:05.382Z,36.33
2018-10-09T21:17:33.638Z,36.67
2018-10-09T21:20:01.862Z,36.57
2018-10-09T21:22:30.137Z,36.77
2018-10-09T21:24:58.399Z,35.43
2018-10-09T21:27:26.679Z,36.10
2018-10-09T21:29:54.960Z,34.97
2018-10-09T21:32:23.144Z,38.30
2018-10-09T21:34:51.405Z,36.20
2018-10-09T21:37:19.667Z,38.00
2018-10-09T21:39:47.912Z,38.97
2018-10-09T21:42:16.180Z,40.00
2018-10-09T21:44:44.413Z,38.77
2018-10-09T21:47:12.660Z,40.27
2018-10-09T21:49:40.924Z,40.03
2018-10-09T21:52:09.164Z,41.53
2018-10-09T21:54:37.530Z,42.83
2018-10-09T21:57:05.785Z,44.77
2018-10-09T21:59:34.309Z,47.07
2018-10-09T22:02:02.629Z,46.97
2018-10-09T22:04:30.894Z,46.93
2018-10-09T22:06:59.276Z,48.83
2018-10-09T22:09:27.498Z,45.70
2018-10-09T22:11:55.788Z,43.53
2018-10-09T22:14:24.028Z,40.97
2018-10-09T22:16:52.314Z,41.47
2018-10-09T22:19:20.560Z,41.40
2018-10-09T22:21:48.834Z,42.07
2018-10-09T22:24:17.126Z,41.57
2018-10-09T22:26:45.416Z,42.77
2018-10-09T22:29:13.672Z,42.47
2018-10-09T22:31:41.927Z,40.77
2018-10-09T22:34:10.149Z,38.27
2018-10-09T22:36:38.380Z,39.00
2018-10-09T22:40:10.703Z,40.77
2018-10-09T22:42:38.936Z,39.93
2018-10-09T22:45:07.225Z,42.90
2018-10-09T22:47:35.476Z,43.57
2018-10-09T22:50:03.929Z,43.33
2018-10-09T22:52:32.188Z,47.90
2018-10-09T22:55:00.781Z,45.33
2018-10-09T22:57:29.004Z,41.83
2018-10-09T22:59:57.242Z,44.47
2018-10-09T23:02:25.472Z,43.77
2018-10-09T23:04:53.724Z,41.33
2018-10-09T23:07:21.946Z,42.93
2018-10-09T23:09:50.172Z,41.27
2018-10-09T23:12:18.456Z,43.10
2018-10-09T23:14:46.760Z,46.23
2018-10-09T23:17:14.981Z,44.33
2018-10-09T23:19:43.220Z,40.90
2018-10-09T23:22:11.461Z,40.10
2018-10-09T23:24:39.700Z,41.87
2018-10-09T23:27:07.953Z,39.07
2018-10-09T23:29:36.269Z,38.53
2018-10-09T23:32:04.492Z,39.77
2018-10-09T23:34:32.713Z,42.23
2018-10-09T23:37:01.312Z,39.57
2018-10-09T23:39:29.545Z,39.50
2018-10-09T23:41:57.812Z,40.03
2018-10-09T23:44:26.341Z,39.70
2018-10-09T23:46:54.568Z,40.63
2018-10-09T23:49:22.841Z,40.23
2018-10-09T23:51:51.100Z,37.50
2018-10-09T23:54:19.330Z,35.87
2018-10-09T23:56:47.561Z,37.17
2018-10-09T23:59:15.781Z,37.23
